createdAt,value
2023-01-07T00:01:44.649Z,3.25
2023-01-07T00:04:12.828Z,3.47
2023-01-07T00:06:41.115Z,3.35
2023-01-07T00:09:13.194Z,6.22
2023-01-07T00:11:41.140Z,4.25
2023-01-07T00:14:10.079Z,3.35
2023-01-07T00:16:37.688Z,4.47
2023-01-07T00:19:05.869Z,5.35
2023-01-07T00:21:32.955Z,4.72
2023-01-07T00:24:01.465Z,4.28
2023-01-07T00:26:31.672Z,5.07
2023-01-07T00:28:58.599Z,3.80
2023-01-07T00:31:27.514Z,3.30
2023-01-07T00:33:54.951Z,3.47
2023-01-07T00:36:23.179Z,3.92
2023-01-07T00:38:54.908Z,3.15
2023-01-07T00:41:21.665Z,3.28
2023-01-07T00:43:49.803Z,5.10
2023-01-07T00:46:16.944Z,3.25
2023-01-07T00:48:44.024Z,3.08
2023-01-07T00:51:12.068Z,3.30
2023-01-07T00:53:39.229Z,4.03
2023-01-07T00:56:06.316Z,3.70
2023-01-07T00:58:33.117Z,2.95
2023-01-07T01:01:02.631Z,3.10
2023-01-07T01:03:30.742Z,2.70
2023-01-07T01:06:01.693Z,3.65
2023-01-07T01:08:28.379Z,3.22
2023-01-07T01:10:55.030Z,2.22
2023-01-07T01:13:21.752Z,2.83
2023-01-07T01:15:49.406Z,3.25
2023-01-07T01:18:17.492Z,2.65
2023-01-07T01:20:44.181Z,2.15
2023-01-07T01:23:10.881Z,2.97
2023-01-07T01:25:37.543Z,3.78
2023-01-07T01:28:04.621Z,2.92
2023-01-07T01:30:31.310Z,2.45
2023-01-07T01:32:57.986Z,3.92
2023-01-07T01:35:26.117Z,2.67
2023-01-07T01:37:52.789Z,3.03
2023-01-07T01:40:19.496Z,3.15
2023-01-07T01:42:46.172Z,2.17
2023-01-07T01:45:12.949Z,2.90
2023-01-07T01:47:45.069Z,2.50
2023-01-07T01:50:17.931Z,2.20
2023-01-07T01:52:51.622Z,1.92
2023-01-07T01:55:20.668Z,2.28
2023-01-07T01:57:50.143Z,3.50
2023-01-07T02:00:17.065Z,3.45
2023-01-07T02:02:47.004Z,2.47
2023-01-07T02:05:13.818Z,1.88
2023-01-07T02:07:40.548Z,1.88
2023-01-07T02:10:14.798Z,1.67
2023-01-07T02:13:04.154Z,1.70
2023-01-07T02:15:38.802Z,1.65
2023-01-07T02:18:18.998Z,2.50
2023-01-07T02:21:00.668Z,1.27
2023-01-07T02:23:59.954Z,1.20
2023-01-07T02:27:03.555Z,2.75
2023-01-07T02:30:05.626Z,2.42
2023-01-07T02:32:49.895Z,2.63
2023-01-07T02:35:31.283Z,1.85
2023-01-07T02:38:07.898Z,1.63
2023-01-07T02:40:41.350Z,2.42
2023-01-07T02:43:16.435Z,1.85
2023-01-07T02:45:48.123Z,2.35
2023-01-07T02:48:19.574Z,1.67
2023-01-07T02:50:46.312Z,1.83
2023-01-07T02:53:16.408Z,1.85
2023-01-07T02:55:58.084Z,2.83
2023-01-07T02:58:52.154Z,2.95
2023-01-07T03:01:32.619Z,2.08
2023-01-07T03:04:15.702Z,2.90
2023-01-07T03:06:54.908Z,1.52
2023-01-07T03:09:30.670Z,1.63
2023-01-07T03:12:05.424Z,1.92
2023-01-07T03:14:38.361Z,3.45
2023-01-07T03:17:07.031Z,2.42
2023-01-07T03:19:38.351Z,2.60
2023-01-07T03:22:08.754Z,2.33
2023-01-07T03:24:35.918Z,1.92
2023-01-07T03:27:05.965Z,1.90
2023-01-07T03:29:33.095Z,2.38
2023-01-07T03:32:09.077Z,2.47
2023-01-07T03:34:38.250Z,2.88
2023-01-07T03:37:09.867Z,2.53
2023-01-07T03:39:39.163Z,3.13
2023-01-07T03:42:07.431Z,1.77
2023-01-07T03:44:34.268Z,2.20
2023-01-07T03:47:01.087Z,1.67
2023-01-07T03:49:27.748Z,2.15
2023-01-07T03:51:55.829Z,2.10
2023-01-07T03:54:22.657Z,2.22
2023-01-07T03:56:49.320Z,2.10
2023-01-07T03:59:16.126Z,4.20
2023-01-07T04:01:42.950Z,2.60
2023-01-07T04:04:09.823Z,2.85
2023-01-07T04:06:36.617Z,2.33
2023-01-07T04:09:04.684Z,2.15
2023-01-07T04:11:31.441Z,4.30
2023-01-07T04:13:58.102Z,2.88
2023-01-07T04:16:24.873Z,3.72
2023-01-07T04:18:51.638Z,3.13
2023-01-07T04:21:18.584Z,2.25
2023-01-07T04:23:45.288Z,2.67
2023-01-07T04:26:13.312Z,2.63
2023-01-07T04:28:39.982Z,3.15
2023-01-07T04:31:06.818Z,2.60
2023-01-07T04:33:33.645Z,3.05
2023-01-07T04:36:00.304Z,2.28
2023-01-07T04:38:26.970Z,3.78
2023-01-07T04:40:53.648Z,3.03
2023-01-07T04:43:21.685Z,3.67
2023-01-07T04:45:48.417Z,3.42
2023-01-07T04:48:15.161Z,2.92
2023-01-07T04:50:41.877Z,2.45
2023-01-07T04:53:08.703Z,2.20
2023-01-07T04:55:35.590Z,3.72
2023-01-07T04:58:02.308Z,6.13
2023-01-07T05:00:30.350Z,2.97
2023-01-07T05:02:57.086Z,2.30
2023-01-07T05:05:23.742Z,2.88
2023-01-07T05:07:50.393Z,2.83
2023-01-07T05:10:17.296Z,2.55
2023-01-07T05:12:43.957Z,2.85
2023-01-07T05:15:11.309Z,3.85
2023-01-07T05:17:39.451Z,3.95
2023-01-07T05:20:07.420Z,2.65
2023-01-07T05:22:34.134Z,3.05
2023-01-07T05:25:00.830Z,3.47
2023-01-07T05:27:27.733Z,3.17
2023-01-07T05:29:54.480Z,3.65
2023-01-07T05:32:21.124Z,3.15
2023-01-07T05:34:49.151Z,2.63
2023-01-07T05:37:15.812Z,4.00
2023-01-07T05:39:42.507Z,3.38
2023-01-07T05:42:09.239Z,4.03
2023-01-07T05:44:36.003Z,4.75
2023-01-07T05:47:02.936Z,4.38
2023-01-07T05:49:29.633Z,4.15
2023-01-07T05:51:57.671Z,3.15
2023-01-07T05:54:24.396Z,5.07
2023-01-07T05:56:51.082Z,5.80
2023-01-07T05:59:18.034Z,5.45
2023-01-07T06:01:44.818Z,4.60
2023-01-07T06:04:11.524Z,3.78
2023-01-07T06:06:38.209Z,3.42
2023-01-07T06:09:06.291Z,3.58
2023-01-07T06:11:32.980Z,3.90
2023-01-07T06:13:59.677Z,5.10
2023-01-07T06:16:26.344Z,6.40
2023-01-07T06:18:53.023Z,6.80
2023-01-07T06:21:19.702Z,6.13
2023-01-07T06:23:46.467Z,4.22
2023-01-07T06:26:14.556Z,6.47
2023-01-07T06:28:41.213Z,5.60
2023-01-07T06:31:09.854Z,5.20
2023-01-07T06:33:36.734Z,5.63
2023-01-07T06:36:03.894Z,5.15
2023-01-07T06:38:30.674Z,4.45
2023-01-07T06:40:57.501Z,5.47
2023-01-07T06:43:25.582Z,5.47
2023-01-07T06:45:52.495Z,5.35
2023-01-07T06:48:19.257Z,4.70
2023-01-07T06:50:46.374Z,7.07
2023-01-07T06:53:13.044Z,5.22
2023-01-07T06:55:39.737Z,4.18
2023-01-07T06:58:06.500Z,4.90
2023-01-07T07:00:34.596Z,5.25
2023-01-07T07:03:01.316Z,4.75
2023-01-07T07:05:28.554Z,5.28
2023-01-07T07:07:55.256Z,4.15
2023-01-07T07:10:21.945Z,5.15
2023-01-07T07:12:48.689Z,4.07
2023-01-07T07:15:15.534Z,5.50
2023-01-07T07:17:43.604Z,6.35
2023-01-07T07:20:10.667Z,7.75
2023-01-07T07:22:37.566Z,7.38
2023-01-07T07:25:04.802Z,7.30
2023-01-07T07:27:31.468Z,7.55
2023-01-07T07:29:58.123Z,8.15
2023-01-07T07:32:24.882Z,7.57
2023-01-07T07:34:53.003Z,6.63
2023-01-07T07:37:19.694Z,8.90
2023-01-07T07:39:46.494Z,6.28
2023-01-07T07:42:13.199Z,6.43
2023-01-07T07:44:39.855Z,6.25
2023-01-07T07:47:06.504Z,5.93
2023-01-07T07:49:33.186Z,9.07
2023-01-07T07:52:01.240Z,5.45
2023-01-07T07:54:27.878Z,5.60
2023-01-07T07:56:54.630Z,5.10
2023-01-07T07:59:21.334Z,4.43
2023-01-07T08:01:48.207Z,6.43
2023-01-07T08:04:15.011Z,6.63
2023-01-07T08:06:41.797Z,5.72
2023-01-07T08:09:09.865Z,5.22
2023-01-07T08:11:36.545Z,6.07
2023-01-07T08:14:03.396Z,6.15
2023-01-07T08:16:30.249Z,6.25
2023-01-07T08:18:57.027Z,6.45
2023-01-07T08:21:23.734Z,6.72
2023-01-07T08:23:50.442Z,6.32
2023-01-07T08:26:18.549Z,6.78
2023-01-07T08:28:46.726Z,6.07
2023-01-07T08:31:13.647Z,8.35
2023-01-07T08:33:40.420Z,7.75
2023-01-07T08:36:22.042Z,7.93
2023-01-07T08:38:51.258Z,7.20
2023-01-07T08:41:19.453Z,5.65
2023-01-07T08:43:46.146Z,7.20
2023-01-07T08:46:12.946Z,6.18
2023-01-07T08:48:39.645Z,7.68
2023-01-07T08:51:07.119Z,7.15
2023-01-07T08:53:34.369Z,9.45
2023-01-07T08:56:01.097Z,9.15
2023-01-07T08:58:29.187Z,7.53
2023-01-07T09:01:00.808Z,7.05
2023-01-07T09:03:27.550Z,8.98
2023-01-07T09:05:54.320Z,6.32
2023-01-07T09:08:20.998Z,7.50
2023-01-07T09:10:47.655Z,7.15
2023-01-07T09:13:14.452Z,6.97
2023-01-07T09:15:42.714Z,6.57
2023-01-07T09:18:09.391Z,6.72
2023-01-07T09:20:36.084Z,8.40
2023-01-07T09:23:02.761Z,5.45
2023-01-07T09:25:29.468Z,6.93
2023-01-07T09:27:56.108Z,7.00
2023-01-07T09:30:22.936Z,7.10
2023-01-07T09:32:51.080Z,7.32
2023-01-07T09:35:18.000Z,8.18
2023-01-07T09:37:44.758Z,7.35
2023-01-07T09:40:21.554Z,7.85
2023-01-07T09:42:54.150Z,8.38
2023-01-07T09:45:24.938Z,7.70
2023-01-07T09:47:55.225Z,7.97
2023-01-07T09:50:32.478Z,6.45
2023-01-07T09:53:04.920Z,8.07
2023-01-07T09:55:34.778Z,8.63
2023-01-07T09:58:01.691Z,10.05
2023-01-07T10:00:31.078Z,7.70
2023-01-07T10:03:22.669Z,7.55
2023-01-07T10:06:01.758Z,9.35
2023-01-07T10:08:35.998Z,11.02
2023-01-07T10:11:12.715Z,9.82
2023-01-07T10:14:14.333Z,7.47
2023-01-07T10:16:50.598Z,8.73
2023-01-07T10:19:24.892Z,7.35
2023-01-07T10:21:54.825Z,9.30
2023-01-07T10:24:26.186Z,9.43
2023-01-07T10:26:55.295Z,11.88
2023-01-07T10:29:29.797Z,10.27
2023-01-07T10:32:03.163Z,8.75
2023-01-07T10:34:37.079Z,8.07
2023-01-07T10:37:06.806Z,8.15
2023-01-07T10:39:45.328Z,8.18
2023-01-07T10:42:20.232Z,8.52
2023-01-07T10:45:17.966Z,10.48
2023-01-07T10:47:58.456Z,9.32
2023-01-07T10:50:45.064Z,9.10
2023-01-07T10:53:22.550Z,8.82
2023-01-07T10:55:57.224Z,8.45
2023-01-07T10:58:36.360Z,8.45
2023-01-07T11:01:03.528Z,10.05
2023-01-07T11:03:30.333Z,9.13
2023-01-07T11:06:04.732Z,10.05
2023-01-07T11:08:36.671Z,8.90
2023-01-07T11:11:04.085Z,10.63
2023-01-07T11:13:34.625Z,9.15
2023-01-07T11:16:07.994Z,9.95
2023-01-07T11:18:39.505Z,9.38
2023-01-07T11:21:07.682Z,10.18
2023-01-07T11:23:35.982Z,9.00
2023-01-07T11:26:09.701Z,8.18
2023-01-07T11:28:40.747Z,9.15
2023-01-07T11:31:07.459Z,8.40
2023-01-07T11:34:03.295Z,8.80
2023-01-07T11:36:40.803Z,9.43
2023-01-07T11:39:10.890Z,8.65
2023-01-07T11:41:37.656Z,7.78
2023-01-07T11:44:14.856Z,8.23
2023-01-07T11:46:44.186Z,9.07
2023-01-07T11:49:22.083Z,10.02
2023-01-07T11:51:50.276Z,8.75
2023-01-07T11:54:21.460Z,9.00
2023-01-07T11:56:48.288Z,8.88
2023-01-07T11:59:26.364Z,8.30
2023-01-07T12:01:54.316Z,11.07
2023-01-07T12:04:23.012Z,7.72
2023-01-07T12:06:53.457Z,8.13
2023-01-07T12:09:26.691Z,8.27
2023-01-07T12:11:56.140Z,8.75
2023-01-07T12:14:26.867Z,8.07
2023-01-07T12:16:54.859Z,8.20
2023-01-07T12:19:30.402Z,7.30
2023-01-07T12:22:10.547Z,8.05
2023-01-07T12:25:11.514Z,8.02
2023-01-07T12:27:47.234Z,7.45
2023-01-07T12:30:33.692Z,10.80
2023-01-07T12:33:11.037Z,7.15
2023-01-07T12:35:41.613Z,6.82
2023-01-07T12:38:14.121Z,6.28
2023-01-07T12:40:45.079Z,7.07
2023-01-07T12:43:17.451Z,6.53
2023-01-07T12:45:49.834Z,5.82
2023-01-07T12:48:24.104Z,6.43
2023-01-07T12:50:54.432Z,5.93
2023-01-07T12:53:28.597Z,4.90
2023-01-07T12:56:00.089Z,5.30
2023-01-07T12:58:39.556Z,6.30
2023-01-07T13:01:15.363Z,6.45
2023-01-07T13:03:50.194Z,7.18
2023-01-07T13:06:22.227Z,6.00
2023-01-07T13:08:57.123Z,7.25
2023-01-07T13:11:28.775Z,7.45
2023-01-07T13:13:55.771Z,7.57
2023-01-07T13:16:23.556Z,6.85
2023-01-07T13:18:50.417Z,5.07
2023-01-07T13:21:19.104Z,6.70
2023-01-07T13:24:04.858Z,5.68
2023-01-07T13:26:38.814Z,6.10
2023-01-07T13:29:31.239Z,5.68
2023-01-07T13:32:21.658Z,8.00
2023-01-07T13:35:00.742Z,4.63
2023-01-07T13:37:45.136Z,5.50
2023-01-07T13:40:45.527Z,5.32
2023-01-07T13:43:31.454Z,6.00
2023-01-07T13:46:02.481Z,6.07
2023-01-07T13:48:29.629Z,6.50
2023-01-07T13:50:59.160Z,5.60
2023-01-07T13:53:45.699Z,6.50
2023-01-07T13:56:43.722Z,6.40
2023-01-07T13:59:46.497Z,8.07
2023-01-07T14:02:20.192Z,5.78
2023-01-07T14:04:48.763Z,5.90
2023-01-07T14:07:16.088Z,5.68
2023-01-07T14:09:42.895Z,25.75
2023-01-07T14:12:56.272Z,14.27
2023-01-07T14:15:47.571Z,9.57
2023-01-07T14:18:46.144Z,12.68
2023-01-07T14:21:26.499Z,14.43
2023-01-07T14:24:11.581Z,21.75
2023-01-07T14:26:46.085Z,17.17
2023-01-07T14:29:29.978Z,12.18
2023-01-07T14:32:12.882Z,12.27
2023-01-07T14:34:40.035Z,11.23
2023-01-07T14:37:17.024Z,51.50
2023-01-07T14:39:45.134Z,32.20
2023-01-07T14:42:40.425Z,10.57
2023-01-07T14:45:40.468Z,7.47
2023-01-07T14:48:30.313Z,7.75
2023-01-07T14:51:11.209Z,9.18
2023-01-07T14:53:51.181Z,14.05
2023-01-07T14:56:31.466Z,16.17
2023-01-07T14:59:23.307Z,21.05
2023-01-07T15:02:33.075Z,23.52
2023-01-07T15:05:46.212Z,19.95
2023-01-07T15:08:19.767Z,13.52
2023-01-07T15:10:49.966Z,14.40
2023-01-07T15:13:20.063Z,13.23
2023-01-07T15:15:53.370Z,18.30
2023-01-07T15:18:21.806Z,18.73
2023-01-07T15:21:00.052Z,16.80
2023-01-07T15:23:35.532Z,17.83
2023-01-07T15:26:11.712Z,27.58
2023-01-07T15:28:47.689Z,24.88
2023-01-07T15:31:21.715Z,15.05
2023-01-07T15:34:01.736Z,14.25
2023-01-07T15:36:30.527Z,16.75
2023-01-07T15:39:00.348Z,17.33
2023-01-07T15:41:31.255Z,22.08
2023-01-07T15:43:59.517Z,19.67
2023-01-07T15:46:27.293Z,14.98
2023-01-07T15:49:19.346Z,15.90
2023-01-07T15:51:49.171Z,10.93
2023-01-07T15:54:23.899Z,9.10
2023-01-07T15:56:53.342Z,9.93
2023-01-07T15:59:25.897Z,10.23
2023-01-07T16:01:57.406Z,8.68
2023-01-07T16:04:27.096Z,9.45
2023-01-07T16:06:58.161Z,12.00
2023-01-07T16:09:26.366Z,14.13
2023-01-07T16:11:53.199Z,12.38
2023-01-07T16:14:21.766Z,11.52
2023-01-07T16:16:48.866Z,14.35
2023-01-07T16:19:17.582Z,10.35
2023-01-07T16:21:50.524Z,8.57
2023-01-07T16:24:19.027Z,10.55
2023-01-07T16:26:49.463Z,10.20
2023-01-07T16:29:20.378Z,9.50
2023-01-07T16:31:47.526Z,12.02
2023-01-07T16:34:53.963Z,12.32
2023-01-07T16:37:20.981Z,10.88
2023-01-07T16:39:50.212Z,11.07
2023-01-07T16:42:18.624Z,11.13
2023-01-07T16:45:05.572Z,10.00
2023-01-07T16:47:33.500Z,8.98
2023-01-07T16:50:30.503Z,10.10
2023-01-07T16:52:57.596Z,8.75
2023-01-07T16:55:47.113Z,7.43
2023-01-07T16:58:25.047Z,8.80
2023-01-07T17:00:53.826Z,9.32
2023-01-07T17:03:21.953Z,9.52
2023-01-07T17:06:00.159Z,10.23
2023-01-07T17:08:27.376Z,10.13
2023-01-07T17:11:00.594Z,9.35
2023-01-07T17:13:33.992Z,10.20
2023-01-07T17:16:31.598Z,7.78
2023-01-07T17:19:19.257Z,8.32
2023-01-07T17:21:46.032Z,9.70
2023-01-07T17:24:22.823Z,10.88
2023-01-07T17:26:51.554Z,9.98
2023-01-07T17:29:19.264Z,8.38
2023-01-07T17:31:46.923Z,12.13
2023-01-07T17:34:14.170Z,12.35
2023-01-07T17:36:40.907Z,15.07
2023-01-07T17:39:07.647Z,14.25
2023-01-07T17:41:36.020Z,16.63
2023-01-07T17:44:05.122Z,12.52
2023-01-07T17:46:32.001Z,11.13
2023-01-07T17:48:59.272Z,12.88
2023-01-07T17:51:27.298Z,13.70
2023-01-07T17:53:56.562Z,12.23
2023-01-07T17:56:24.118Z,11.23
2023-01-07T17:58:51.235Z,12.23
2023-01-07T18:01:21.929Z,12.40
2023-01-07T18:03:49.215Z,13.57
2023-01-07T18:06:17.590Z,15.73
2023-01-07T18:08:44.839Z,13.25
2023-01-07T18:11:14.317Z,12.15
2023-01-07T18:13:41.837Z,12.23
2023-01-07T18:16:11.970Z,12.43
2023-01-07T18:18:40.125Z,13.02
2023-01-07T18:21:06.960Z,14.13
2023-01-07T18:23:33.680Z,10.82
2023-01-07T18:26:00.359Z,12.60
2023-01-07T18:28:27.083Z,10.75
2023-01-07T18:30:53.825Z,12.60
2023-01-07T18:33:20.765Z,18.40
2023-01-07T18:35:48.920Z,18.50
2023-01-07T18:38:16.603Z,21.90
2023-01-07T18:40:43.761Z,19.15
2023-01-07T18:43:13.287Z,14.38
2023-01-07T18:45:40.551Z,11.55
2023-01-07T18:48:07.751Z,12.07
2023-01-07T18:50:34.712Z,13.15
2023-01-07T18:53:02.817Z,15.32
2023-01-07T18:55:29.828Z,11.85
2023-01-07T18:57:56.574Z,14.90
2023-01-07T19:00:23.428Z,17.15
2023-01-07T19:02:50.246Z,15.88
2023-01-07T19:05:17.150Z,14.68
2023-01-07T19:07:43.921Z,13.10
2023-01-07T19:10:12.254Z,15.15
2023-01-07T19:12:38.910Z,14.70
2023-01-07T19:15:06.558Z,12.85
2023-01-07T19:17:33.375Z,12.80
2023-01-07T19:20:00.244Z,12.70
2023-01-07T19:22:26.963Z,14.43
2023-01-07T19:24:53.776Z,11.80
2023-01-07T19:27:22.030Z,13.90
2023-01-07T19:29:48.804Z,13.32
2023-01-07T19:32:15.744Z,12.85
2023-01-07T19:34:42.686Z,13.65
2023-01-07T19:37:09.507Z,12.95
2023-01-07T19:39:36.373Z,11.50
2023-01-07T19:42:03.219Z,12.18
2023-01-07T19:44:31.493Z,13.48
2023-01-07T19:46:58.430Z,12.73
2023-01-07T19:49:25.257Z,11.35
2023-01-07T19:51:52.583Z,9.90
2023-01-07T19:54:19.378Z,10.93
2023-01-07T19:56:46.132Z,9.27
2023-01-07T19:59:13.012Z,11.88
2023-01-07T20:01:41.215Z,14.90
2023-01-07T20:04:08.644Z,18.45
2023-01-07T20:06:37.365Z,12.43
2023-01-07T20:09:04.851Z,11.75
2023-01-07T20:11:31.573Z,18.80
2023-01-07T20:13:58.269Z,14.73
2023-01-07T20:16:25.345Z,17.55
2023-01-07T20:18:55.306Z,14.35
2023-01-07T20:21:24.378Z,11.70
2023-01-07T20:23:51.738Z,11.45
2023-01-07T20:26:20.919Z,12.63
2023-01-07T20:28:48.082Z,11.57
2023-01-07T20:31:19.845Z,11.18
2023-01-07T20:33:47.328Z,10.85
2023-01-07T20:36:17.211Z,11.30
2023-01-07T20:38:45.349Z,11.32
2023-01-07T20:41:14.802Z,10.82
2023-01-07T20:43:41.552Z,10.90
2023-01-07T20:46:09.294Z,10.88
2023-01-07T20:48:36.707Z,12.93
2023-01-07T20:51:05.775Z,11.07
2023-01-07T20:53:34.551Z,14.75
2023-01-07T20:56:01.834Z,11.70
2023-01-07T20:58:31.510Z,12.52
2023-01-07T21:00:58.556Z,11.00
2023-01-07T21:03:25.294Z,12.32
2023-01-07T21:05:55.592Z,10.20
2023-01-07T21:08:22.281Z,12.43
2023-01-07T21:10:50.294Z,12.60
2023-01-07T21:13:16.967Z,12.57
2023-01-07T21:15:43.713Z,12.18
2023-01-07T21:18:10.523Z,12.38
2023-01-07T21:20:38.795Z,12.07
2023-01-07T21:23:05.850Z,11.43
2023-01-07T21:25:32.729Z,10.68
2023-01-07T21:28:01.377Z,10.82
2023-01-07T21:30:28.239Z,12.10
2023-01-07T21:32:55.104Z,11.55
2023-01-07T21:35:22.257Z,12.18
2023-01-07T21:37:51.493Z,11.25
2023-01-07T21:40:18.315Z,11.70
2023-01-07T21:42:45.008Z,10.93
2023-01-07T21:45:13.364Z,11.75
2023-01-07T21:47:40.254Z,11.23
2023-01-07T21:50:07.424Z,10.80
2023-01-07T21:52:34.264Z,10.05
2023-01-07T21:55:01.152Z,11.88
2023-01-07T21:57:27.806Z,12.18
2023-01-07T21:59:54.483Z,12.73
2023-01-07T22:02:22.573Z,11.82
2023-01-07T22:04:49.370Z,10.48
2023-01-07T22:07:18.489Z,12.60
2023-01-07T22:09:45.519Z,11.05
2023-01-07T22:12:13.698Z,11.10
2023-01-07T22:14:40.430Z,12.88
2023-01-07T22:17:07.627Z,11.77
2023-01-07T22:19:35.769Z,11.13
2023-01-07T22:22:02.570Z,12.00
2023-01-07T22:24:29.400Z,11.85
2023-01-07T22:26:56.059Z,12.40
2023-01-07T22:29:22.812Z,12.32
2023-01-07T22:31:50.301Z,10.95
2023-01-07T22:34:17.082Z,11.55
2023-01-07T22:36:50.171Z,13.35
2023-01-07T22:39:19.800Z,13.07
2023-01-07T22:41:47.014Z,11.02
2023-01-07T22:44:16.620Z,12.88
2023-01-07T22:46:46.114Z,11.43
2023-01-07T22:49:12.902Z,12.85
2023-01-07T22:51:42.925Z,13.70
2023-01-07T22:54:12.425Z,12.40
2023-01-07T22:56:39.518Z,10.45
2023-01-07T22:59:06.264Z,11.00
2023-01-07T23:01:33.217Z,11.27
2023-01-07T23:03:59.980Z,11.70
2023-01-07T23:06:26.678Z,10.93
2023-01-07T23:08:53.346Z,12.73
2023-01-07T23:11:22.605Z,11.88
2023-01-07T23:13:49.330Z,12.18
2023-01-07T23:16:16.007Z,16.30
2023-01-07T23:18:42.730Z,11.10
2023-01-07T23:21:09.676Z,11.13
2023-01-07T23:23:36.361Z,11.52
2023-01-07T23:26:03.022Z,12.18
2023-01-07T23:28:31.182Z,13.23
2023-01-07T23:31:00.682Z,11.93
2023-01-07T23:33:27.385Z,10.63
2023-01-07T23:36:01.312Z,11.90
2023-01-07T23:38:28.001Z,13.40
2023-01-07T23:40:59.748Z,13.45
2023-01-07T23:43:26.409Z,13.70
2023-01-07T23:45:56.569Z,12.43
2023-01-07T23:48:23.311Z,11.68
2023-01-07T23:50:49.998Z,13.05
2023-01-07T23:53:16.683Z,12.68
2023-01-07T23:55:50.428Z,11.15
2023-01-07T23:58:17.281Z,12.50
